Time;durP1;ratioP1;P1;durP2;ratioP2;P2;SDS_P1;SDS_P2;PMS_P1;PMS_P2;Temp;Humidity;BMP_temperature;BMP_pressure;BME280_temperature;BME280_humidity;BME280_pressure;Samples;Min_cycle;Max_cycle;Signal;HPM_P1;HPM_P2
2023/02/23 00:01:13;;;;;;;30.25;16.02;;;;;;;17.01;49.18;101008.06;5010221;28;20183;-62
2023/02/23 00:03:39;;;;;;;32.55;15.98;;;;;;;17.01;48.97;101005.34;5041734;28;20099;-62
2023/02/23 00:06:05;;;;;;;26.33;14.20;;;;;;;16.98;48.51;101006.53;5027344;28;20053;-62
2023/02/23 00:08:34;;;;;;;28.30;15.27;;;;;;;16.99;49.35;101010.09;5008466;28;20052;-61
2023/02/23 00:11:00;;;;;;;34.55;15.20;;;;;;;16.98;50.02;101008.38;5025605;28;20163;-62
2023/02/23 00:13:25;;;;;;;29.80;14.40;;;;;;;16.98;49.42;101011.09;5025393;28;20136;-62
2023/02/23 00:15:50;;;;;;;27.30;13.43;;;;;;;16.94;48.96;101007.03;5010110;28;20516;-62
2023/02/23 00:18:16;;;;;;;26.85;12.50;;;;;;;16.94;49.05;101012.47;5024730;28;20063;-62
2023/02/23 00:20:44;;;;;;;29.33;14.15;;;;;;;16.91;49.42;101004.66;5024988;28;20025;-62
2023/02/23 00:23:10;;;;;;;28.75;15.10;;;;;;;16.87;49.26;101007.69;5009466;28;20086;-63
2023/02/23 00:25:37;;;;;;;27.58;14.25;;;;;;;16.86;49.22;101006.00;5026693;28;20029;-62
2023/02/23 00:28:06;;;;;;;26.00;14.05;;;;;;;16.86;50.14;101011.41;4999525;28;20532;-62
2023/02/23 00:30:33;;;;;;;26.48;13.60;;;;;;;16.85;48.59;101009.72;5033394;28;20029;-63
2023/02/23 00:32:58;;;;;;;30.70;14.32;;;;;;;16.83;49.20;101006.31;5016331;28;20393;-62
2023/02/23 00:35:24;;;;;;;31.42;14.45;;;;;;;16.81;50.03;101008.34;5033258;28;20529;-63
2023/02/23 00:37:49;;;;;;;26.80;13.23;;;;;;;16.79;49.59;101004.97;5015565;28;20065;-63
2023/02/23 00:40:16;;;;;;;29.25;14.73;;;;;;;16.77;49.40;101001.59;5015557;28;20036;-63
2023/02/23 00:42:45;;;;;;;34.53;15.10;;;;;;;16.77;50.05;101000.75;4998937;28;20108;-63
2023/02/23 00:45:14;;;;;;;26.60;14.32;;;;;;;16.78;49.46;101008.69;5015670;28;20044;-63
2023/02/23 00:47:43;;;;;;;36.08;15.65;;;;;;;16.71;48.97;100996.84;4999109;28;20037;-62
2023/02/23 00:50:11;;;;;;;32.13;14.90;;;;;;;16.77;48.66;101001.59;4999609;28;20034;-63
2023/02/23 00:52:38;;;;;;;33.67;15.90;;;;;;;16.77;49.83;101000.75;4999151;28;20037;-63
2023/02/23 00:55:06;;;;;;;32.42;16.25;;;;;;;16.73;49.50;101002.94;5015274;28;20033;-63
2023/02/23 00:57:32;;;;;;;35.50;17.13;;;;;;;16.76;50.29;100999.91;5015097;28;20409;-63
2023/02/23 00:59:57;;;;;;;38.92;18.35;;;;;;;16.75;49.49;101009.00;4982961;28;20103;-63
2023/02/23 01:02:23;;;;;;;37.30;18.02;;;;;;;16.71;49.04;101007.66;5015209;28;20058;-63
2023/02/23 01:04:49;;;;;;;49.55;20.23;;;;;;;16.71;49.65;101004.97;4998688;28;20033;-63
2023/02/23 01:07:14;;;;;;;46.85;21.45;;;;;;;16.69;49.85;101001.56;5032664;28;20498;-63
2023/02/23 01:09:40;;;;;;;45.20;20.23;;;;;;;16.66;48.97;101010.00;5015235;28;20022;-63
2023/02/23 01:12:06;;;;;;;39.67;18.80;;;;;;;16.63;49.61;101007.63;5015314;28;20507;-65
2023/02/23 01:14:32;;;;;;;42.28;20.90;;;;;;;16.59;50.29;101008.09;4998478;28;20685;-67
2023/02/23 01:16:58;;;;;;;43.97;21.00;;;;;;;16.55;49.98;101002.19;4998478;28;20056;-66
2023/02/23 01:19:24;;;;;;;42.35;20.27;;;;;;;16.50;50.64;101009.91;4998204;28;20041;-67
2023/02/23 01:21:49;;;;;;;39.88;19.38;;;;;;;16.46;50.63;101003.13;5014929;28;20452;-67
2023/02/23 01:24:14;;;;;;;41.63;19.88;;;;;;;16.42;50.41;101007.16;5014559;28;20029;-68
2023/02/23 01:26:43;;;;;;;41.30;18.48;;;;;;;16.38;50.04;101008.50;5015395;28;20033;-67
2023/02/23 01:29:17;;;;;;;37.65;16.40;;;;;;;16.35;51.55;101008.84;5014739;28;20068;-67
2023/02/23 01:31:46;;;;;;;39.25;16.80;;;;;;;16.33;51.27;101013.56;5014532;28;20041;-66
2023/02/23 01:34:12;;;;;;;39.60;17.15;;;;;;;16.31;51.00;101018.25;4998149;28;20033;-66
2023/02/23 01:36:39;;;;;;;37.00;17.65;;;;;;;16.29;50.49;101004.06;5032170;28;20037;-66
2023/02/23 01:39:06;;;;;;;40.35;18.38;;;;;;;16.30;49.87;101005.78;4998383;28;20473;-66
2023/02/23 01:41:33;;;;;;;38.05;17.10;;;;;;;16.30;51.29;101008.47;5014786;28;20077;-66
2023/02/23 01:44:08;;;;;;;36.50;17.80;;;;;;;16.30;50.41;101014.72;4998356;28;20049;-67
2023/02/23 01:46:35;;;;;;;34.40;18.30;;;;;;;16.29;51.29;101012.19;5032530;28;20037;-66
2023/02/23 01:49:02;;;;;;;39.40;16.88;;;;;;;16.27;50.27;101009.63;4999947;28;20493;-65
2023/02/23 01:51:31;;;;;;;33.20;17.05;;;;;;;16.30;51.00;101008.47;5000906;28;20390;-66
2023/02/23 01:54:14;;;;;;;41.80;19.77;;;;;;;16.30;50.90;101000.38;5017663;28;20405;-65
2023/02/23 01:56:42;;;;;;;44.72;18.75;;;;;;;16.32;51.60;101001.06;4998207;28;20398;-65
2023/02/23 01:59:11;;;;;;;43.10;17.90;;;;;;;16.32;50.25;101001.06;5014388;28;20034;-64
2023/02/23 02:01:39;;;;;;;46.40;20.65;;;;;;;16.35;50.72;101006.13;4998660;28;20505;-65
2023/02/23 02:04:05;;;;;;;44.70;19.08;;;;;;;16.36;50.40;101005.09;5032047;28;20052;-65
2023/02/23 02:06:32;;;;;;;38.15;18.42;;;;;;;16.39;51.04;101006.66;5014042;28;20079;-65
2023/02/23 02:09:05;;;;;;;35.60;16.58;;;;;;;16.39;50.87;100999.38;5014712;28;20021;-64
2023/02/23 02:11:35;;;;;;;39.17;18.55;;;;;;;16.44;50.44;100998.91;5014883;28;20097;-65
2023/02/23 02:14:13;;;;;;;42.80;19.77;;;;;;;16.46;51.46;101008.56;5030687;28;20044;-64
2023/02/23 02:16:38;;;;;;;39.47;19.55;;;;;;;16.45;50.97;101000.59;5014149;28;20120;-65
2023/02/23 02:19:22;;;;;;;44.80;19.60;;;;;;;16.47;50.85;100996.69;5031644;28;20476;-63
2023/02/23 02:22:16;;;;;;;48.08;20.67;;;;;;;16.47;50.59;100998.59;5014245;28;20123;-64
2023/02/23 02:25:00;;;;;;;46.05;19.25;;;;;;;16.47;50.45;101009.41;4983930;28;20110;-63
2023/02/23 02:27:37;;;;;;;44.50;19.63;;;;;;;16.46;51.19;101003.13;5013985;28;20117;-64
2023/02/23 02:30:33;;;;;;;45.15;20.05;;;;;;;16.47;50.77;101001.28;5032151;28;20025;-63
2023/02/23 02:33:14;;;;;;;49.38;19.17;;;;;;;16.46;50.38;101003.13;5014139;28;20482;-63
2023/02/23 02:35:48;;;;;;;42.53;19.80;;;;;;;16.45;50.33;101001.44;5031635;28;20045;-64
2023/02/23 02:38:39;;;;;;;50.05;19.48;;;;;;;16.44;50.09;101004.31;5013716;28;20494;-63
2023/02/23 02:41:11;;;;;;;45.40;19.80;;;;;;;16.42;50.74;100999.06;5013774;28;20053;-63
2023/02/23 02:43:51;;;;;;;48.10;19.65;;;;;;;16.43;50.81;101000.75;4997650;28;20517;-63
2023/02/23 02:46:30;;;;;;;41.38;18.58;;;;;;;16.43;50.12;100998.06;5013810;28;20037;-64
2023/02/23 02:49:02;;;;;;;44.50;20.05;;;;;;;16.43;51.28;100997.19;4997364;28;20032;-63
2023/02/23 02:51:35;;;;;;;45.78;20.23;;;;;;;16.44;50.54;100993.50;5031240;28;20060;-63
2023/02/23 02:54:24;;;;;;;38.10;19.25;;;;;;;16.44;50.54;100999.75;5014327;28;20104;-63
2023/02/23 02:56:53;;;;;;;37.17;18.48;;;;;;;16.41;49.90;100989.28;4997438;28;20034;-63
2023/02/23 04:19:28;;;;;;;38.90;17.00;;;;;;;16.44;49.97;101023.25;5032242;28;20041;-64
2023/02/23 04:21:53;;;;;;;33.30;17.65;;;;;;;16.44;50.44;101026.81;5016063;28;20034;-63
2023/02/23 04:24:19;;;;;;;37.80;16.30;;;;;;;16.45;50.79;101028.47;4983098;28;20486;-63
2023/02/23 04:26:44;;;;;;;34.55;18.00;;;;;;;16.45;51.50;101023.06;5016537;28;20136;-64
2023/02/23 04:29:11;;;;;;;36.63;17.08;;;;;;;16.46;50.69;101027.47;5032881;28;20034;-63
2023/02/23 04:31:37;;;;;;;36.83;16.60;;;;;;;16.46;50.19;101029.31;5015825;28;20052;-63
2023/02/23 04:34:03;;;;;;;30.67;16.45;;;;;;;16.44;50.77;101031.34;4999664;28;20100;-64
2023/02/23 04:36:29;;;;;;;33.63;17.70;;;;;;;16.43;51.73;101035.06;5033389;28;20033;-64
2023/02/23 04:38:54;;;;;;;37.42;17.50;;;;;;;16.40;51.25;101028.13;5015915;28;20034;-66
2023/02/23 04:41:20;;;;;;;38.50;15.55;;;;;;;16.35;51.30;101027.75;5033184;28;20029;-66
2023/02/23 04:43:45;;;;;;;34.33;17.33;;;;;;;16.36;50.83;101029.44;5015190;28;20366;-65
2023/02/23 04:46:11;;;;;;;34.35;17.38;;;;;;;16.33;50.53;101024.38;4999103;28;20037;-65
2023/02/23 04:48:36;;;;;;;39.13;18.10;;;;;;;16.34;50.79;101026.06;5015409;28;20520;-64
2023/02/23 04:51:02;;;;;;;36.75;18.23;;;;;;;16.35;50.78;101037.72;5015823;28;20065;-64
2023/02/23 04:53:28;;;;;;;31.45;15.55;;;;;;;16.33;50.70;101030.59;5015412;28;20041;-64
2023/02/23 04:55:53;;;;;;;35.90;17.17;;;;;;;16.36;50.49;101034.03;5015381;28;20033;-64
2023/02/23 04:58:19;;;;;;;32.20;15.90;;;;;;;16.35;51.46;101038.56;5015305;28;20026;-64
2023/02/23 05:00:44;;;;;;;32.15;16.10;;;;;;;16.36;50.56;101034.84;5032906;28;20489;-64
2023/02/23 05:03:11;;;;;;;33.53;15.85;;;;;;;16.38;51.65;101040.97;5015723;28;20048;-64
2023/02/23 05:05:36;;;;;;;31.80;15.90;;;;;;;16.37;51.48;101041.97;4998768;28;20072;-64
2023/02/23 05:08:02;;;;;;;34.20;16.50;;;;;;;16.38;50.98;101040.09;4998570;28;20045;-64
2023/02/23 05:10:27;;;;;;;31.73;16.48;;;;;;;16.38;51.64;101034.69;5015110;28;20041;-64
2023/02/23 05:12:54;;;;;;;31.42;14.57;;;;;;;16.38;51.83;101040.97;5032526;28;20029;-63
2023/02/23 05:15:19;;;;;;;28.08;14.10;;;;;;;16.37;51.17;101043.81;5014861;28;20045;-63
2023/02/23 05:17:46;;;;;;;34.80;16.27;;;;;;;16.39;51.32;101045.34;5015469;28;20022;-63
2023/02/23 05:20:12;;;;;;;32.85;16.23;;;;;;;16.40;51.17;101041.63;4998366;28;20056;-63
2023/02/23 05:22:38;;;;;;;33.35;14.95;;;;;;;16.38;51.10;101046.38;4998340;28;20040;-64
2023/02/23 05:25:04;;;;;;;31.30;15.45;;;;;;;16.37;50.21;101052.78;5032326;28;20042;-63
2023/02/23 05:27:31;;;;;;;34.47;15.63;;;;;;;16.40;51.45;101047.03;5014554;28;20485;-64
2023/02/23 05:29:56;;;;;;;31.50;15.25;;;;;;;16.39;51.31;101050.75;5015337;28;20096;-63
2023/02/23 05:32:22;;;;;;;31.42;15.52;;;;;;;16.38;51.01;101043.66;5014507;28;20082;-63
2023/02/23 05:34:47;;;;;;;28.13;14.85;;;;;;;16.40;51.92;101052.44;5032230;28;20030;-63
2023/02/23 05:37:12;;;;;;;30.02;16.98;;;;;;;16.42;50.36;101060.38;5032087;28;20034;-63
2023/02/23 05:39:38;;;;;;;28.40;14.55;;;;;;;16.40;50.98;101052.44;4997053;28;20063;-63
2023/02/23 05:42:04;;;;;;;30.23;15.52;;;;;;;16.41;51.13;101048.75;5014913;28;20440;-63
2023/02/23 05:44:29;;;;;;;29.75;16.33;;;;;;;16.43;50.23;101052.13;5031705;28;20067;-63
2023/02/23 05:46:55;;;;;;;35.58;15.25;;;;;;;16.44;50.84;101053.84;4998070;28;20138;-63
2023/02/23 05:49:20;;;;;;;32.08;15.63;;;;;;;16.43;50.61;101043.16;5014493;28;20045;-63
2023/02/23 05:51:45;;;;;;;28.70;15.30;;;;;;;16.44;51.11;101047.56;5014511;28;20520;-63
2023/02/23 05:54:12;;;;;;;29.42;15.32;;;;;;;16.44;51.34;101045.72;5014826;28;20490;-64
2023/02/23 05:56:38;;;;;;;32.00;16.00;;;;;;;16.45;50.26;101050.09;5014598;28;20029;-63
2023/02/23 05:59:04;;;;;;;31.17;15.13;;;;;;;16.46;51.25;101048.25;5031848;28;20053;-63
2023/02/23 06:01:29;;;;;;;28.98;14.00;;;;;;;16.46;50.81;101049.09;5014499;28;20033;-64
2023/02/23 06:03:56;;;;;;;27.40;13.95;;;;;;;16.45;51.07;101043.84;5030519;28;20040;-63
2023/02/23 06:06:24;;;;;;;28.10;14.25;;;;;;;16.46;50.82;101046.41;5014428;28;20051;-63
2023/02/23 06:08:50;;;;;;;27.92;14.32;;;;;;;16.46;50.70;101051.81;5015174;28;20044;-63
2023/02/23 06:11:15;;;;;;;32.22;14.70;;;;;;;16.45;50.67;101050.09;4981935;28;20041;-63
2023/02/23 06:13:41;;;;;;;27.65;14.82;;;;;;;16.45;51.00;101055.50;5019034;28;20041;-63
2023/02/23 06:16:07;;;;;;;27.80;13.95;;;;;;;16.46;51.33;101057.22;5021226;28;20115;-63
2023/02/23 06:18:32;;;;;;;26.88;14.75;;;;;;;16.45;50.83;101060.91;5055419;28;20594;-64
2023/02/23 06:21:01;;;;;;;33.22;15.30;;;;;;;16.47;51.08;101072.41;5038390;28;20085;-63
2023/02/23 06:23:27;;;;;;;29.85;14.30;;;;;;;16.46;51.28;101078.84;5036875;28;20509;-63
2023/02/23 06:25:53;;;;;;;29.63;14.75;;;;;;;16.48;51.38;101082.25;5034005;28;20045;-63
2023/02/23 06:28:18;;;;;;;26.38;13.50;;;;;;;16.47;51.41;101083.22;5051597;28;20124;-62
2023/02/23 06:30:45;;;;;;;27.75;14.13;;;;;;;16.48;50.97;101087.66;5034029;28;20493;-63
2023/02/23 06:33:11;;;;;;;27.85;15.13;;;;;;;16.48;51.60;101087.66;5018056;28;20025;-61
2023/02/23 06:35:36;;;;;;;28.80;14.43;;;;;;;16.48;51.23;101086.78;5033982;28;20417;-63
2023/02/23 06:38:04;;;;;;;30.25;15.23;;;;;;;16.48;50.79;101093.06;5033653;28;20045;-62
2023/02/23 06:40:30;;;;;;;38.28;15.40;;;;;;;16.48;50.41;101094.91;5033715;28;20029;-64
2023/02/23 06:42:55;;;;;;;27.65;14.52;;;;;;;16.45;50.97;101092.50;5000285;28;20056;-63
2023/02/23 06:45:20;;;;;;;30.17;14.50;;;;;;;16.44;50.76;101102.50;5033611;28;20508;-62
2023/02/23 06:47:46;;;;;;;30.98;13.98;;;;;;;16.43;51.65;101099.94;5051768;28;20033;-63
2023/02/23 06:50:12;;;;;;;32.85;15.35;;;;;;;16.43;50.80;101100.81;5017064;28;20033;-62
2023/02/23 06:52:37;;;;;;;34.22;15.13;;;;;;;16.42;51.35;101103.66;5020106;28;20098;-62
2023/02/23 06:55:04;;;;;;;35.97;15.38;;;;;;;16.38;51.44;101103.16;5037321;28;20029;-62
2023/02/23 06:57:29;;;;;;;36.20;15.32;;;;;;;16.39;50.46;101120.22;5036941;28;20044;-62
2023/02/23 06:59:54;;;;;;;40.03;17.40;;;;;;;16.38;51.71;101108.56;5021084;28;20086;-62
2023/02/23 07:02:20;;;;;;;42.35;17.23;;;;;;;16.37;51.76;101117.66;5004195;28;20527;-62
2023/02/23 07:04:46;;;;;;;35.80;15.98;;;;;;;16.35;51.59;101122.38;5055179;28;20042;-62
2023/02/23 07:07:11;;;;;;;36.80;15.52;;;;;;;16.35;50.65;101122.38;5037123;28;20045;-62
2023/02/23 07:09:39;;;;;;;35.75;15.55;;;;;;;16.35;50.59;101124.25;5020451;28;20033;-63
2023/02/23 07:12:04;;;;;;;39.83;16.60;;;;;;;16.35;50.59;101133.22;5055230;28;20423;-62
2023/02/23 07:14:30;;;;;;;46.70;16.98;;;;;;;16.34;50.62;101131.50;5033117;28;20056;-62
2023/02/23 07:16:55;;;;;;;39.80;15.13;;;;;;;16.33;51.14;101143.34;5000720;28;20049;-62
2023/02/23 07:19:22;;;;;;;40.38;17.58;;;;;;;16.33;50.80;101146.03;5034730;28;20030;-62
2023/02/23 07:21:47;;;;;;;47.72;18.58;;;;;;;16.31;51.21;101138.06;5033455;28;20036;-63
2023/02/23 07:24:12;;;;;;;45.78;17.50;;;;;;;16.27;51.22;101138.56;5017335;28;20033;-62
2023/02/23 07:26:39;;;;;;;45.33;18.05;;;;;;;16.28;50.56;101138.38;5016821;28;20041;-62
2023/02/23 07:29:05;;;;;;;39.88;17.38;;;;;;;16.28;51.63;101140.22;5017163;28;20025;-62
2023/02/23 07:31:30;;;;;;;47.95;16.83;;;;;;;16.29;51.07;101148.19;5016936;28;20044;-63
2023/02/23 07:33:56;;;;;;;38.17;17.05;;;;;;;16.28;51.09;101151.06;5015402;28;20028;-62
2023/02/23 07:36:22;;;;;;;38.92;15.75;;;;;;;16.31;51.63;101158.84;5016623;28;20029;-62
2023/02/23 07:38:48;;;;;;;41.95;16.08;;;;;;;16.32;49.75;101157.84;5034813;28;20033;-62
2023/02/23 07:41:14;;;;;;;36.10;16.98;;;;;;;16.31;50.69;101165.09;5016623;28;20413;-63
2023/02/23 07:43:40;;;;;;;38.13;16.67;;;;;;;16.35;49.76;101167.50;5016591;28;20159;-62
2023/02/23 07:46:05;;;;;;;42.15;17.48;;;;;;;16.34;51.18;101161.25;5032893;28;20401;-62
2023/02/23 07:48:30;;;;;;;44.38;17.75;;;;;;;16.33;50.54;101163.09;5016399;28;20037;-62
2023/02/23 07:50:56;;;;;;;41.38;16.98;;;;;;;16.36;50.27;101170.03;5017097;28;20112;-63
2023/02/23 07:53:22;;;;;;;36.25;15.90;;;;;;;16.37;50.66;101171.75;5016464;28;20042;-62
2023/02/23 07:55:57;;;;;;;41.03;17.25;;;;;;;16.39;50.86;101174.31;5016364;28;20180;-62
2023/02/23 07:58:22;;;;;;;37.97;16.40;;;;;;;16.41;51.48;101178.53;5016191;28;20034;-62
2023/02/23 08:00:48;;;;;;;42.45;16.55;;;;;;;16.42;50.80;101174.81;4999833;28;20035;-62
2023/02/23 08:03:13;;;;;;;39.90;17.70;;;;;;;16.41;50.93;101173.13;5015975;28;20079;-63
2023/02/23 08:05:39;;;;;;;48.85;17.48;;;;;;;16.44;50.45;101180.06;5016247;28;20044;-62
2023/02/23 08:08:04;;;;;;;42.97;17.13;;;;;;;16.44;51.35;101186.34;4999949;28;20040;-62
2023/02/23 08:10:30;;;;;;;44.97;17.27;;;;;;;16.44;51.28;101188.19;5016122;28;20076;-62
2023/02/23 08:12:56;;;;;;;44.88;17.73;;;;;;;16.45;50.29;101190.72;5032472;28;20025;-62
2023/02/23 08:15:22;;;;;;;42.40;16.90;;;;;;;16.45;50.72;101198.84;5049844;28;20052;-63
2023/02/23 08:17:47;;;;;;;44.65;16.92;;;;;;;16.46;50.69;101203.25;5019703;28;20539;-62
2023/02/23 08:20:12;;;;;;;43.78;17.38;;;;;;;16.46;50.66;101195.13;5035626;28;20035;-63
2023/02/23 08:22:38;;;;;;;43.45;17.80;;;;;;;16.45;50.74;101206.94;5053652;28;20528;-62
2023/02/23 08:25:04;;;;;;;42.53;17.15;;;;;;;16.46;50.84;101208.66;5035419;28;20094;-62
2023/02/23 08:27:33;;;;;;;48.80;17.95;;;;;;;16.44;50.10;101202.56;5035582;28;20489;-62
2023/02/23 08:29:59;;;;;;;39.83;15.98;;;;;;;16.46;50.26;101214.06;5019453;28;20051;-62
2023/02/23 08:32:25;;;;;;;43.20;16.83;;;;;;;16.46;49.95;101213.22;5002800;28;20032;-62
2023/02/23 08:34:50;;;;;;;36.85;16.13;;;;;;;16.47;49.44;101221.16;5018915;28;20030;-62
2023/02/23 08:37:15;;;;;;;36.60;15.63;;;;;;;16.47;49.99;101214.91;5035425;28;20028;-62
2023/02/23 08:39:41;;;;;;;44.58;16.50;;;;;;;16.46;50.27;101216.78;5018713;28;20393;-62
2023/02/23 08:42:06;;;;;;;42.05;16.45;;;;;;;16.46;50.71;101214.06;5019106;28;20108;-62
2023/02/23 08:44:31;;;;;;;50.67;18.25;;;;;;;16.47;51.29;101218.44;5035271;28;20417;-62
2023/02/23 08:46:57;;;;;;;42.35;16.88;;;;;;;16.47;50.40;101223.84;5035048;28;20647;-62
2023/02/23 08:49:24;;;;;;;50.58;17.90;;;;;;;16.47;51.28;101226.56;5035267;28;20045;-62
2023/02/23 08:51:49;;;;;;;42.22;16.67;;;;;;;16.46;49.48;101227.59;5053006;28;20087;-62
2023/02/23 08:54:16;;;;;;;40.78;17.55;;;;;;;16.45;50.52;101228.56;5033653;28;20021;-62
2023/02/23 08:56:41;;;;;;;42.40;16.08;;;;;;;16.45;50.08;101234.00;5033283;28;20049;-62
2023/02/23 08:59:07;;;;;;;52.67;18.80;;;;;;;16.45;50.85;101235.84;5014814;28;20060;-62
2023/02/23 09:01:32;;;;;;;49.15;18.50;;;;;;;16.45;49.52;101238.53;5015211;28;20121;-62
2023/02/23 09:03:58;;;;;;;51.72;18.75;;;;;;;16.44;50.28;101243.13;4998574;28;20029;-62
2023/02/23 09:06:24;;;;;;;44.75;17.00;;;;;;;16.44;50.67;101242.28;5031511;28;20033;-62
2023/02/23 09:08:51;;;;;;;48.85;17.55;;;;;;;16.43;50.92;101245.97;4999153;28;20021;-62
2023/02/23 09:11:16;;;;;;;48.25;17.50;;;;;;;16.42;49.92;101245.13;5014954;28;20026;-62
2023/02/23 09:13:43;;;;;;;44.80;17.35;;;;;;;16.46;50.08;101245.66;5014631;28;20057;-62
2023/02/23 09:16:08;;;;;;;44.70;18.05;;;;;;;16.48;51.33;101260.72;5015051;28;20076;-62
2023/02/23 09:18:35;;;;;;;42.88;18.98;;;;;;;16.50;50.27;101256.00;5032576;28;20497;-62
2023/02/23 09:21:06;;;;;;;50.05;17.33;;;;;;;16.52;50.25;101248.59;5015191;28;20032;-62
2023/02/23 09:23:32;;;;;;;50.92;19.58;;;;;;;16.54;50.74;101249.31;5014759;28;20033;-63
2023/02/23 09:26:02;;;;;;;57.85;20.23;;;;;;;16.57;49.45;101249.00;5014805;28;20063;-63
2023/02/23 09:28:29;;;;;;;46.60;18.17;;;;;;;16.57;50.82;101251.72;5014595;28;20054;-63
2023/02/23 09:30:55;;;;;;;55.15;20.02;;;;;;;16.60;50.97;101256.81;5014962;28;20033;-62
2023/02/23 09:33:20;;;;;;;52.42;19.02;;;;;;;16.62;50.71;101254.78;5014261;28;20033;-62
2023/02/23 09:35:46;;;;;;;54.95;19.90;;;;;;;16.64;49.95;101257.31;4998797;28;20478;-62
2023/02/23 09:38:12;;;;;;;47.63;18.50;;;;;;;16.64;49.61;101260.00;4998169;28;20030;-62
2023/02/23 09:40:52;;;;;;;44.50;17.85;;;;;;;16.66;49.49;101264.28;5032117;28;20065;-63
2023/02/23 09:43:29;;;;;;;38.47;15.98;;;;;;;16.69;49.73;101269.38;4998165;28;20480;-63
2023/02/23 09:46:15;;;;;;;39.80;16.05;;;;;;;16.70;50.26;101272.91;5014376;28;20030;-62
2023/02/23 09:48:42;;;;;;;48.35;17.85;;;;;;;16.70;51.00;101276.47;5030137;28;20037;-62
2023/02/23 09:51:11;;;;;;;49.58;17.73;;;;;;;16.72;49.82;101279.03;5015050;28;20025;-63
2023/02/23 09:53:43;;;;;;;44.63;18.90;;;;;;;16.73;50.64;101286.97;5014305;28;20030;-62
2023/02/23 09:56:21;;;;;;;45.13;17.50;;;;;;;16.77;51.11;101287.53;5030882;28;20509;-63
2023/02/23 09:58:46;;;;;;;44.67;17.60;;;;;;;16.77;49.82;101295.66;5031917;28;20033;-62
2023/02/23 10:01:24;;;;;;;46.55;18.92;;;;;;;16.79;50.26;101296.31;5014296;28;20048;-62
2023/02/23 10:04:30;;;;;;;47.00;17.17;;;;;;;16.80;50.23;101295.34;5032037;28;20117;-62
2023/02/23 10:06:59;;;;;;;49.15;16.95;;;;;;;16.83;50.23;101298.53;5031622;28;20030;-62
2023/02/23 10:09:55;;;;;;;44.55;17.40;;;;;;;16.85;50.73;101301.13;5014316;28;20116;-62
2023/02/23 10:12:51;;;;;;;43.55;17.33;;;;;;;16.83;50.02;101303.97;5014094;28;20056;-62
2023/02/23 10:15:49;;;;;;;45.65;16.80;;;;;;;16.85;49.59;101301.97;5013772;28;20046;-62
2023/02/23 10:18:29;;;;;;;46.17;16.67;;;;;;;16.83;50.98;101306.66;5014194;28;20076;-62
2023/02/23 10:21:03;;;;;;;34.70;14.50;;;;;;;16.87;51.00;101304.50;5014879;28;20029;-64
2023/02/23 10:23:39;;;;;;;38.17;15.57;;;;;;;16.88;49.99;101311.63;5014281;28;20038;-62
2023/02/23 10:26:07;;;;;;;41.50;15.70;;;;;;;16.89;49.62;101314.16;5014861;28;20064;-62
2023/02/23 10:28:35;;;;;;;45.20;16.48;;;;;;;16.92;50.58;101310.28;5036012;28;20041;-62
2023/02/23 10:31:02;;;;;;;39.28;15.95;;;;;;;16.94;49.57;101310.16;5001786;28;20034;-62
2023/02/23 10:33:33;;;;;;;48.25;15.90;;;;;;;16.96;50.09;101316.25;5001711;28;20116;-62
2023/02/23 10:36:11;;;;;;;40.20;15.80;;;;;;;17.01;50.19;101311.19;5018566;28;20063;-61
2023/02/23 10:38:36;;;;;;;36.22;16.15;;;;;;;17.05;49.43;101318.84;5001447;28;20034;-62
2023/02/23 10:41:03;;;;;;;36.13;13.48;;;;;;;17.07;50.27;101305.16;5001324;28;20404;-62
2023/02/23 10:43:28;;;;;;;35.13;12.80;;;;;;;17.17;50.16;101308.63;5001559;28;20112;-62
2023/02/23 10:45:54;;;;;;;28.63;10.68;;;;;;;17.21;50.03;101313.53;5036700;28;20117;-62
2023/02/23 10:48:25;;;;;;;26.40;10.75;;;;;;;17.27;50.22;101306.63;5005565;28;20059;-62
2023/02/23 10:50:54;;;;;;;28.67;10.77;;;;;;;17.37;50.36;101312.75;5021999;28;20014;-62
2023/02/23 10:53:25;;;;;;;23.88;10.65;;;;;;;17.46;50.16;101311.81;5002274;28;20037;-61
2023/02/23 10:56:09;;;;;;;27.27;11.40;;;;;;;17.48;49.68;101309.78;5033936;28;20394;-62
2023/02/23 10:58:42;;;;;;;29.70;12.10;;;;;;;17.51;49.61;101309.44;5017404;28;20037;-62
2023/02/23 11:01:08;;;;;;;25.88;10.98;;;;;;;17.55;49.67;101310.88;5017904;28;20100;-62
2023/02/23 11:03:49;;;;;;;31.23;11.55;;;;;;;17.63;49.30;101313.63;5034903;28;20128;-62
2023/02/23 11:06:41;;;;;;;31.90;11.88;;;;;;;17.70;48.88;101306.53;5017344;28;20109;-61
2023/02/23 11:09:25;;;;;;;26.45;11.55;;;;;;;17.82;49.33;101317.91;5001948;28;20026;-64
2023/02/23 11:11:55;;;;;;;25.33;11.25;;;;;;;17.89;49.67;101303.56;5017683;28;20129;-64
2023/02/23 11:14:24;;;;;;;29.77;10.82;;;;;;;17.95;49.34;101308.28;5034722;28;20049;-61
2023/02/23 11:16:49;;;;;;;26.23;10.55;;;;;;;18.09;49.10;101312.22;5000745;28;20052;-61
2023/02/23 11:19:24;;;;;;;24.52;8.90;;;;;;;18.18;48.91;101308.53;4984585;28;20453;-62
2023/02/23 11:21:51;;;;;;;25.48;9.80;;;;;;;18.26;48.46;101315.81;5000637;28;20523;-62
2023/02/23 11:24:29;;;;;;;25.02;9.00;;;;;;;18.37;48.47;101312.81;5016644;28;20505;-61
2023/02/23 11:27:02;;;;;;;25.58;10.65;;;;;;;18.45;48.16;101315.53;5018088;28;20041;-64
2023/02/23 11:29:36;;;;;;;;;;;;;;;18.58;48.84;101310.47;5018217;28;20502;-63
2023/02/23 11:32:07;;;;;;;19.02;7.90;;;;;;;18.73;48.57;101310.66;5034604;28;19917;-63
2023/02/23 11:34:39;;;;;;;19.52;8.35;;;;;;;18.95;47.73;101307.25;5016927;28;20034;-61
2023/02/23 11:37:23;;;;;;;20.67;9.43;;;;;;;19.01;48.33;101301.13;5000423;28;20061;-64
2023/02/23 11:39:53;;;;;;;22.17;7.80;;;;;;;18.83;48.22;101309.44;5033861;28;20034;-64
2023/02/23 11:42:26;;;;;;;18.60;8.23;;;;;;;18.69;48.37;101309.28;5016555;28;20036;-64
2023/02/23 11:45:06;;;;;;;18.08;8.38;;;;;;;18.56;48.65;101302.50;5016967;28;20026;-64
2023/02/23 11:47:34;;;;;;;20.90;8.68;;;;;;;18.47;48.71;101292.63;5016594;28;20040;-64
2023/02/23 11:50:00;;;;;;;21.77;9.23;;;;;;;18.44;48.65;101298.41;5016595;28;20064;-64
2023/02/23 11:52:26;;;;;;;20.85;8.77;;;;;;;18.41;48.35;101289.75;5034201;28;20127;-66
2023/02/23 11:54:58;;;;;;;18.30;8.35;;;;;;;18.39;48.60;101291.78;5016597;28;20025;-61
2023/02/23 11:57:27;;;;;;;26.67;9.63;;;;;;;18.36;47.88;101284.84;5016267;28;20021;-63
2023/02/23 11:59:52;;;;;;;20.55;8.73;;;;;;;18.39;48.49;101283.66;5016721;28;20032;-62
2023/02/23 12:02:22;;;;;;;19.33;8.23;;;;;;;18.45;48.14;101282.97;5016292;28;20041;-62
2023/02/23 12:04:49;;;;;;;22.70;8.75;;;;;;;18.53;48.33;101285.72;5016385;28;20033;-62
2023/02/23 12:07:42;;;;;;;24.98;8.43;;;;;;;18.63;47.93;101280.97;5000056;28;20033;-61
2023/02/23 12:10:26;;;;;;;21.27;7.97;;;;;;;18.80;47.78;101277.22;5033901;28;20517;-62
2023/02/23 12:13:06;;;;;;;21.70;8.50;;;;;;;19.07;47.47;101276.81;5015997;28;20041;-64
2023/02/23 12:15:44;;;;;;;23.20;8.57;;;;;;;19.26;46.64;101266.59;5033520;28;20069;-64
2023/02/23 12:18:26;;;;;;;18.60;8.75;;;;;;;19.36;46.84;101268.09;5034046;28;20080;-64
2023/02/23 12:20:55;;;;;;;21.20;8.70;;;;;;;19.44;46.89;101261.81;5015981;28;20041;-61
2023/02/23 12:23:24;;;;;;;19.55;7.93;;;;;;;19.55;47.32;101270.41;5015893;28;20084;-64
2023/02/23 12:25:54;;;;;;;18.55;9.10;;;;;;;19.59;47.41;101269.06;5015831;28;20045;-64
2023/02/23 12:28:34;;;;;;;20.70;9.05;;;;;;;19.71;47.02;101278.50;5015687;28;20083;-64
2023/02/23 12:31:18;;;;;;;21.52;8.73;;;;;;;19.83;46.77;101278.09;4999377;28;20069;-64
2023/02/23 12:33:46;;;;;;;22.83;8.70;;;;;;;19.88;46.77;101279.25;5033526;28;20049;-64
2023/02/23 12:36:11;;;;;;;20.30;8.43;;;;;;;19.91;46.94;101278.03;4999834;28;20024;-62
2023/02/23 12:38:47;;;;;;;18.67;8.40;;;;;;;19.90;46.60;101274.50;5033148;28;20116;-64